Time;durP1;ratioP1;P1;durP2;ratioP2;P2;SDS_P1;SDS_P2;PMS_P1;PMS_P2;Temp;Humidity;BMP_temperature;BMP_pressure;BME280_temperature;BME280_humidity;BME280_pressure;Samples;Min_cycle;Max_cycle;Signal;HPM_P1;HPM_P2
2022/06/09 00:00:29;;;;;;;;;;;;;;;14.85;70.63;100497.34;5057590;28;20002;-76
2022/06/09 00:02:57;;;;;;;;;;;;;;;14.90;70.76;100496.28;5068235;28;19912;-76
2022/06/09 00:05:22;;;;;;;;;;;;;;;14.83;71.80;100500.91;5070355;28;19999;-76
2022/06/09 00:07:50;;;;;;;;;;;;;;;14.82;69.03;100497.47;5057875;28;20023;-76
2022/06/09 00:10:18;;;;;;;;;;;;;;;14.82;69.05;100500.09;5061546;28;19927;-76
2022/06/09 00:12:44;;;;;;;;;;;;;;;14.66;71.44;100495.53;5064073;28;19925;-76
2022/06/09 00:15:10;;;;;;;;;;;;;;;14.68;72.47;100498.94;5060889;28;19925;-76
2022/06/09 00:17:36;;;;;;;;;;;;;;;14.75;70.76;100492.56;5059332;28;20475;-76
2022/06/09 00:20:01;;;;;;;;;;;;;;;14.78;72.14;100488.06;5058796;28;20063;-76
2022/06/09 00:22:27;;;;;;;;;;;;;;;14.81;71.45;100500.16;5056749;28;19949;-76
2022/06/09 00:24:52;;;;;;;;;;;;;;;14.74;71.81;100501.31;5062586;28;19921;-76
2022/06/09 00:27:17;;;;;;;;;;;;;;;14.74;72.02;100496.94;5064762;28;19925;-76
2022/06/09 00:29:43;;;;;;;;;;;;;;;14.74;72.11;100496.09;5060677;28;19925;-77
2022/06/09 00:32:08;;;;;;;;;;;;;;;14.74;72.07;100501.31;5061807;28;19933;-77
2022/06/09 00:34:34;;;;;;;;;;;;;;;14.65;71.72;100496.47;5065124;28;19995;-77
2022/06/09 00:37:00;;;;;;;;;;;;;;;14.58;73.06;100495.00;5062879;28;19924;-77
2022/06/09 00:39:25;;;;;;;;;;;;;;;14.64;71.74;100502.59;5055692;28;19966;-77
2022/06/09 00:41:50;;;;;;;;;;;;;;;14.63;71.97;100506.13;5059490;28;19920;-77
2022/06/09 00:44:16;;;;;;;;;;;;;;;14.64;71.49;100513.06;5041460;28;19995;-77
2022/06/09 00:46:42;;;;;;;;;;;;;;;14.60;71.98;100516.69;5048464;28;20299;-77
2022/06/09 00:49:14;;;;;;;;;;;;;;;14.47;70.15;100521.59;5047898;28;20016;-77
2022/06/09 00:51:42;;;;;;;;;;;;;;;14.49;71.87;100527.59;5047674;28;19967;-77
2022/06/09 00:54:11;;;;;;;;;;;;;;;14.53;71.94;100529.16;5049955;28;19924;-76
2022/06/09 00:56:39;;;;;;;;;;;;;;;14.49;71.88;100534.59;5050817;28;19947;-76
2022/06/09 00:59:04;;;;;;;;;;;;;;;14.54;70.19;100536.09;5046751;28;20341;-76
2022/06/09 01:01:31;;;;;;;;;;;;;;;14.49;72.26;100540.69;5046563;28;19929;-76
2022/06/09 01:04:01;;;;;;;;;;;;;;;14.44;72.55;100541.78;5046941;28;19929;-76
2022/06/09 01:06:28;;;;;;;;;;;;;;;14.52;72.15;100543.16;5046556;28;20633;-76
2022/06/09 01:08:58;;;;;;;;;;;;;;;14.46;72.77;100542.56;5044161;28;19917;-76
2022/06/09 01:11:24;;;;;;;;;;;;;;;14.57;72.46;100558.66;5047425;28;19983;-76
2022/06/09 01:13:49;;;;;;;;;;;;;;;14.58;72.71;100561.22;5040721;28;19924;-76
2022/06/09 01:16:23;;;;;;;;;;;;;;;14.56;72.39;100560.41;5043586;28;19925;-76
2022/06/09 01:18:48;;;;;;;;;;;;;;;14.44;72.48;100557.47;5048637;28;20303;-76
2022/06/09 01:21:33;;;;;;;;;;;;;;;14.54;72.40;100559.63;5047944;28;20456;-76
2022/06/09 01:24:07;;;;;;;;;;;;;;;14.49;72.64;100565.97;5046471;28;19925;-76
2022/06/09 01:26:39;;;;;;;;;;;;;;;14.61;71.89;100563.72;5047584;28;19975;-76
2022/06/09 01:29:16;;;;;;;;;;;;;;;14.52;72.45;100573.69;5046206;28;20017;-76
2022/06/09 01:31:52;;;;;;;;;;;;;;;14.53;72.47;100568.38;5049093;28;19929;-76
2022/06/09 01:34:17;;;;;;;;;;;;;;;14.45;73.10;100565.22;5047483;28;19932;-76
2022/06/09 01:36:50;;;;;;;;;;;;;;;14.57;72.09;100575.19;5040745;28;19922;-76
2022/06/09 01:39:15;;;;;;;;;;;;;;;14.51;72.41;100567.59;5045914;28;19948;-76
2022/06/09 01:41:48;;;;;;;;;;;;;;;14.54;72.19;100577.06;5048878;28;20372;-76
2022/06/09 01:44:13;;;;;;;;;;;;;;;14.47;72.62;100575.63;5048098;28;19925;-76
2022/06/09 01:46:41;;;;;;;;;;;;;;;14.42;72.63;100578.41;5048461;28;20693;-76
2022/06/09 01:49:10;;;;;;;;;;;;;;;14.35;72.35;100579.59;5048809;28;19927;-76
2022/06/09 01:51:37;;;;;;;;;;;;;;;14.33;72.64;100582.25;5048380;28;19929;-76
2022/06/09 01:54:23;;;;;;;;;;;;;;;14.40;73.22;100575.03;5044455;28;19928;-76
2022/06/09 01:57:07;;;;;;;;;;;;;;;14.30;72.68;100578.91;5048226;28;19924;-76
2022/06/09 01:59:35;;;;;;;;;;;;;;;14.35;72.03;100574.34;5040730;28;19925;-76
2022/06/09 02:02:04;;;;;;;;;;;;;;;14.33;72.31;100584.00;5049183;28;19947;-76
2022/06/09 02:04:42;;;;;;;;;;;;;;;14.28;73.02;100589.41;5047006;28;19925;-76
2022/06/09 02:07:08;;;;;;;;;;;;;;;14.45;72.71;100593.97;5046131;28;19925;-76
2022/06/09 02:09:34;;;;;;;;;;;;;;;14.53;72.22;100593.69;5042962;28;19956;-76
2022/06/09 02:12:09;;;;;;;;;;;;;;;14.56;72.11;100596.19;5045050;28;20388;-76
2022/06/09 02:14:37;;;;;;;;;;;;;;;14.58;71.77;100594.34;5045452;28;19921;-76
2022/06/09 02:17:03;;;;;;;;;;;;;;;14.53;71.75;100589.28;5049521;28;19931;-76
2022/06/09 02:19:29;;;;;;;;;;;;;;;14.53;71.48;100589.28;5046507;28;19932;-76
2022/06/09 02:21:54;;;;;;;;;;;;;;;14.60;71.84;100595.97;5043423;28;19928;-76
2022/06/09 02:24:19;;;;;;;;;;;;;;;14.59;72.17;100583.81;5046835;28;19975;-76
2022/06/09 02:26:45;;;;;;;;;;;;;;;14.52;72.38;100591.97;5052089;28;20311;-76
2022/06/09 02:29:10;;;;;;;;;;;;;;;14.53;71.68;100599.72;5043721;28;19974;-76
2022/06/09 02:31:35;;;;;;;;;;;;;;;14.51;71.34;100598.97;5050329;28;20023;-76
2022/06/09 02:34:01;;;;;;;;;;;;;;;14.41;72.63;100592.41;5047902;28;20316;-76
2022/06/09 02:36:26;;;;;;;;;;;;;;;14.42;72.10;100601.06;5047121;28;19928;-76
2022/06/09 02:38:52;;;;;;;;;;;;;;;14.44;72.31;100597.53;5041367;28;19975;-76
2022/06/09 02:41:18;;;;;;;;;;;;;;;14.47;71.83;100596.53;5045542;28;19925;-76
2022/06/09 02:43:43;;;;;;;;;;;;;;;14.49;70.73;100595.56;5046213;28;20685;-76
2022/06/09 02:46:09;;;;;;;;;;;;;;;14.48;71.85;100606.06;5043884;28;19925;-76
2022/06/09 02:48:34;;;;;;;;;;;;;;;14.39;72.11;100604.66;5051206;28;20444;-76
2022/06/09 02:51:18;;;;;;;;;;;;;;;14.40;72.81;100592.44;5047501;28;19932;-76
2022/06/09 02:53:43;;;;;;;;;;;;;;;14.52;71.02;100597.19;5042780;28;19929;-76
2022/06/09 02:56:09;;;;;;;;;;;;;;;14.40;72.99;100597.69;5046843;28;20329;-76
2022/06/09 02:58:34;;;;;;;;;;;;;;;14.42;72.79;100595.84;5043256;28;19925;-76
2022/06/09 03:01:00;;;;;;;;;;;;;;;14.50;72.17;100594.63;5044441;28;20486;-76
2022/06/09 03:03:25;;;;;;;;;;;;;;;14.61;72.35;100586.38;5038381;28;20418;-76
2022/06/09 03:05:50;;;;;;;;;;;;;;;14.49;72.20;100595.56;5042728;28;19935;-76
2022/06/09 03:08:15;;;;;;;;;;;;;;;14.47;72.73;100592.16;5043615;28;19924;-76
2022/06/09 03:10:41;;;;;;;;;;;;;;;14.50;72.93;100593.81;5045122;28;20003;-76
2022/06/09 03:13:06;;;;;;;;;;;;;;;14.54;72.06;100598.84;5047033;28;19924;-76
2022/06/09 03:15:32;;;;;;;;;;;;;;;14.49;71.65;100599.94;5042307;28;20035;-76
2022/06/09 03:17:57;;;;;;;;;;;;;;;14.48;73.03;100603.44;5046358;28;19912;-76
2022/06/09 03:20:24;;;;;;;;;;;;;;;14.54;72.54;100601.44;5046101;28;19971;-76
2022/06/09 03:22:50;;;;;;;;;;;;;;;14.49;72.96;100608.63;5044780;28;19932;-76
2022/06/09 03:25:15;;;;;;;;;;;;;;;14.52;73.13;100611.13;5046142;28;19928;-76
2022/06/09 03:27:40;;;;;;;;;;;;;;;14.47;73.14;100615.69;5048577;28;20445;-76
2022/06/09 03:30:06;;;;;;;;;;;;;;;14.46;71.03;100618.34;5046424;28;19913;-76
2022/06/09 03:32:32;;;;;;;;;;;;;;;14.45;70.76;100629.72;5046700;28;20394;-79
2022/06/09 03:34:57;;;;;;;;;;;;;;;14.44;72.00;100634.09;5048903;28;19975;-78
2022/06/09 03:37:23;;;;;;;;;;;;;;;14.29;73.49;100630.28;5046530;28;20406;-79
2022/06/09 03:39:48;;;;;;;;;;;;;;;14.49;73.64;100649.59;5044660;28;19977;-78
2022/06/09 03:42:14;;;;;;;;;;;;;;;14.50;74.57;100644.28;5050431;28;19925;-78
2022/06/09 03:44:40;;;;;;;;;;;;;;;14.48;75.57;100650.50;5042665;28;19924;-78
2022/06/09 03:47:05;;;;;;;;;;;;;;;14.35;76.73;100651.91;5046378;28;20075;-78
2022/06/09 03:49:31;;;;;;;;;;;;;;;14.34;76.81;100653.66;5040197;28;19975;-78
2022/06/09 03:51:56;;;;;;;;;;;;;;;14.32;76.70;100658.09;5050670;28;20443;-78
2022/06/09 03:54:22;;;;;;;;;;;;;;;14.22;77.26;100661.94;5044995;28;19920;-78
2022/06/09 03:56:48;;;;;;;;;;;;;;;14.13;77.60;100667.53;5049842;28;19917;-78
2022/06/09 03:59:13;;;;;;;;;;;;;;;14.22;77.35;100669.78;5042718;28;20415;-78
2022/06/09 04:01:39;;;;;;;;;;;;;;;14.26;76.42;100682.66;5040020;28;20398;-78
2022/06/09 04:04:04;;;;;;;;;;;;;;;14.30;76.86;100683.41;5049731;28;19924;-78
2022/06/09 04:06:30;;;;;;;;;;;;;;;14.20;77.38;100679.47;5045090;28;19967;-78
2022/06/09 04:08:55;;;;;;;;;;;;;;;14.26;77.27;100687.91;5046946;28;19917;-78
2022/06/09 04:11:22;;;;;;;;;;;;;;;14.31;77.14;100685.13;5044890;28;19929;-78
2022/06/09 04:13:47;;;;;;;;;;;;;;;14.27;77.37;100691.38;5047359;28;19963;-78
2022/06/09 04:16:13;;;;;;;;;;;;;;;14.27;77.33;100694.84;5040446;28;19979;-78
2022/06/09 04:18:38;;;;;;;;;;;;;;;14.26;77.59;100700.97;5047453;28;19974;-78
2022/06/09 04:21:03;;;;;;;;;;;;;;;14.24;77.60;100704.53;5052771;28;19928;-78
2022/06/09 04:23:29;;;;;;;;;;;;;;;14.31;77.32;100698.19;5046884;28;19975;-78
2022/06/09 04:25:54;;;;;;;;;;;;;;;14.28;77.40;100700.91;5050799;28;19924;-78
2022/06/09 04:28:20;;;;;;;;;;;;;;;14.19;77.54;100709.09;5050020;28;19925;-78
2022/06/09 04:30:46;;;;;;;;;;;;;;;14.35;77.43;100712.84;5052561;28;19927;-78
2022/06/09 04:33:12;;;;;;;;;;;;;;;14.18;78.22;100721.28;5046290;28;20679;-78
2022/06/09 04:35:37;;;;;;;;;;;;;;;14.20;77.73;100721.25;5050528;28;19925;-78
2022/06/09 04:38:03;;;;;;;;;;;;;;;14.18;77.72;100720.44;5046865;28;19921;-78
2022/06/09 04:40:30;;;;;;;;;;;;;;;14.14;77.94;100724.09;5041343;28;19928;-78
2022/06/09 04:42:55;;;;;;;;;;;;;;;14.23;77.08;100726.38;5049337;28;19927;-78
2022/06/09 04:45:21;;;;;;;;;;;;;;;14.25;77.32;100724.53;5049587;28;20023;-78
2022/06/09 04:47:46;;;;;;;;;;;;;;;14.26;77.52;100718.41;5047479;28;19917;-78
2022/06/09 04:50:12;;;;;;;;;;;;;;;14.18;77.83;100718.69;5046472;28;19928;-78
2022/06/09 04:52:38;;;;;;;;;;;;;;;14.22;77.65;100724.66;5047901;28;19932;-78
2022/06/09 04:55:04;;;;;;;;;;;;;;;14.18;77.91;100723.06;5046325;28;20392;-78
2022/06/09 04:57:36;;;;;;;;;;;;;;;14.20;78.40;100724.72;5035499;28;20020;-78
2022/06/09 05:00:02;;;;;;;;;;;;;;;14.31;77.90;100727.78;5021771;28;20299;-78
2022/06/09 05:02:28;;;;;;;;;;;;;;;14.24;78.15;100731.53;5045376;28;19971;-78
2022/06/09 05:04:53;;;;;;;;;;;;;;;14.33;78.19;100725.09;5043991;28;19975;-78
2022/06/09 05:07:18;;;;;;;;;;;;;;;14.27;78.64;100725.34;5048883;28;19925;-78
2022/06/09 05:09:44;;;;;;;;;;;;;;;14.37;78.14;100731.06;5047541;28;19928;-78
2022/06/09 05:12:09;;;;;;;;;;;;;;;14.25;78.66;100743.69;5045565;28;19925;-78
2022/06/09 05:14:34;;;;;;;;;;;;;;;14.31;78.92;100745.22;5048728;28;20734;-78
2022/06/09 05:17:00;;;;;;;;;;;;;;;14.40;78.27;100746.66;5047509;28;19936;-78
2022/06/09 05:19:25;;;;;;;;;;;;;;;14.38;78.64;100745.84;5050152;28;19921;-78
2022/06/09 05:21:51;;;;;;;;;;;;;;;14.41;78.66;100749.22;5046313;28;20407;-78
2022/06/09 05:24:16;;;;;;;;;;;;;;;14.36;78.80;100747.66;5049562;28;20412;-77
2022/06/09 05:26:41;;;;;;;;;;;;;;;14.49;78.52;100756.75;5046618;28;19924;-76
2022/06/09 05:29:07;;;;;;;;;;;;;;;14.47;79.05;100759.44;5045910;28;19971;-76
2022/06/09 05:31:32;;;;;;;;;;;;;;;14.41;77.71;100757.06;5043940;28;19931;-76
2022/06/09 05:33:57;;;;;;;;;;;;;;;14.46;77.40;100757.72;5049279;28;19921;-76
2022/06/09 05:36:25;;;;;;;;;;;;;;;14.45;78.36;100763.00;5053190;28;19982;-78
2022/06/09 05:47:02;;;;;;;;;;;;;;;14.52;78.63;100780.16;5046461;28;20563;-78
2022/06/09 05:49:30;;;;;;;;;;;;;;;14.56;78.54;100781.78;5049822;28;20011;-78
2022/06/09 05:51:56;;;;;;;;;;;;;;;14.56;78.40;100781.78;5058299;28;19925;-78
2022/06/09 05:54:21;;;;;;;;;;;;;;;14.51;78.69;100789.78;5040701;28;19928;-76
2022/06/09 05:56:47;;;;;;;;;;;;;;;14.62;78.88;100782.38;5046544;28;19971;-76
2022/06/09 05:59:12;;;;;;;;;;;;;;;14.63;78.16;100797.16;5037435;28;19982;-76
2022/06/09 06:01:38;;;;;;;;;;;;;;;14.69;77.41;100791.72;5040779;28;19925;-78
2022/06/09 06:04:04;;;;;;;;;;;;;;;14.66;77.00;100799.66;5052689;28;19929;-76
2022/06/09 06:06:35;;;;;;;;;;;;;;;14.71;78.00;100805.56;5052344;28;19925;-76
2022/06/09 06:09:02;;;;;;;;;;;;;;;14.70;77.45;100803.03;5044142;28;19912;-76
2022/06/09 06:11:28;;;;;;;;;;;;;;;14.73;77.84;100808.13;5053023;28;19929;-76
2022/06/09 06:13:54;;;;;;;;;;;;;;;14.73;77.32;100813.38;5041502;28;20546;-76
2022/06/09 06:16:20;;;;;;;;;;;;;;;14.74;77.87;100818.56;5044564;28;19921;-76
2022/06/09 06:18:45;;;;;;;;;;;;;;;14.68;77.09;100820.53;5049984;28;20026;-76
2022/06/09 06:21:11;;;;;;;;;;;;;;;14.67;77.59;100826.66;5041891;28;19917;-76
2022/06/09 06:23:37;;;;;;;;;;;;;;;14.67;77.50;100827.53;5041926;28;19940;-76
2022/06/09 06:26:02;;;;;;;;;;;;;;;14.58;77.93;100830.47;5049647;28;20015;-78
2022/06/09 06:28:28;;;;;;;;;;;;;;;14.68;77.07;100839.66;5041488;28;19917;-78
2022/06/09 06:30:53;;;;;;;;;;;;;;;14.71;76.88;100842.16;5048063;28;19987;-77
2022/06/09 06:33:19;;;;;;;;;;;;;;;14.73;77.34;100842.13;5041687;28;20062;-76
2022/06/09 06:35:45;;;;;;;;;;;;;;;14.67;76.82;100850.19;5042702;28;19912;-76
2022/06/09 06:38:11;;;;;;;;;;;;;;;14.74;76.74;100849.06;5043401;28;20023;-76
2022/06/09 06:40:36;;;;;;;;;;;;;;;14.64;77.22;100845.06;5044235;28;20012;-76
2022/06/09 06:43:01;;;;;;;;;;;;;;;14.63;76.32;100856.44;5037867;28;19928;-76
2022/06/09 06:45:27;;;;;;;;;;;;;;;14.73;76.87;100852.59;5044354;28;19936;-76
2022/06/09 06:47:53;;;;;;;;;;;;;;;14.74;76.80;100857.78;5047863;28;19917;-76
2022/06/09 06:50:18;;;;;;;;;;;;;;;14.71;76.50;100867.50;5043483;28;19928;-76
2022/06/09 06:52:44;;;;;;;;;;;;;;;14.70;74.55;100877.09;5044935;28;19931;-76
2022/06/09 06:55:11;;;;;;;;;;;;;;;14.75;75.80;100876.94;5048586;28;19924;-77
2022/06/09 06:57:39;;;;;;;;;;;;;;;14.75;75.81;100874.31;5037543;28;19929;-76
2022/06/09 07:00:05;;;;;;;;;;;;;;;14.58;75.19;100879.28;5041363;28;19966;-76
2022/06/09 07:02:31;;;;;;;;;;;;;;;14.67;76.16;100887.66;5041013;28;19925;-76
2022/06/09 07:04:56;;;;;;;;;;;;;;;14.68;75.70;100883.28;5044257;28;19928;-76
2022/06/09 07:07:22;;;;;;;;;;;;;;;14.75;74.88;100888.25;5038352;28;19920;-78
2022/06/09 07:09:47;;;;;;;;;;;;;;;14.82;75.53;100887.16;5042892;28;20724;-77
2022/06/09 07:12:12;;;;;;;;;;;;;;;14.81;75.57;100895.03;5047213;28;19947;-77
2022/06/09 07:14:38;;;;;;;;;;;;;;;14.86;76.88;100903.56;5041757;28;20014;-77
2022/06/09 07:17:05;;;;;;;;;;;;;;;14.78;74.92;100898.63;5045708;28;19928;-77
2022/06/09 07:19:30;;;;;;;;;;;;;;;14.84;75.54;100908.00;5043979;28;19992;-77
2022/06/09 07:21:56;;;;;;;;;;;;;;;14.87;75.56;100908.75;5042407;28;20936;-77
2022/06/09 07:24:21;;;;;;;;;;;;;;;14.85;76.82;100912.31;5032966;28;19921;-77
2022/06/09 07:26:47;;;;;;;;;;;;;;;14.85;75.42;100914.94;5039048;28;20423;-77
2022/06/09 07:29:12;;;;;;;;;;;;;;;14.86;75.28;100920.09;5042245;28;20281;-78
2022/06/09 07:31:38;;;;;;;;;;;;;;;14.86;74.44;100916.63;5038587;28;20887;-78
2022/06/09 07:34:03;;;;;;;;;;;;;;;14.92;74.71;100931.28;5045144;28;19947;-78
2022/06/09 07:36:29;;;;;;;;;;;;;;;14.81;74.35;100921.19;5041042;28;20299;-78
2022/06/09 07:38:54;;;;;;;;;;;;;;;14.84;74.79;100929.78;5044494;28;20346;-78
2022/06/09 07:41:20;;;;;;;;;;;;;;;14.92;72.73;100934.72;5043288;28;20402;-78
2022/06/09 07:43:49;;;;;;;;;;;;;;;14.93;74.10;100930.34;5042718;28;19956;-78
2022/06/09 07:46:15;;;;;;;;;;;;;;;14.93;73.87;100936.44;5038831;28;20229;-76
2022/06/09 07:48:41;;;;;;;;;;;;;;;14.92;73.29;100937.34;5039126;28;19937;-76
2022/06/09 07:51:06;;;;;;;;;;;;;;;14.93;72.76;100939.06;5044482;28;19930;-76
2022/06/09 07:53:31;;;;;;;;;;;;;;;14.99;72.56;100941.44;5042544;28;19927;-76
2022/06/09 07:55:57;;;;;;;;;;;;;;;15.03;72.91;100936.97;5047926;28;20011;-77
2022/06/09 07:58:22;;;;;;;;;;;;;;;15.09;73.99;100940.22;5046067;28;20000;-77
2022/06/09 08:00:48;;;;;;;;;;;;;;;15.05;74.19;100945.59;5045836;28;20638;-76
2022/06/09 08:03:18;;;;;;;;;;;;;;;15.14;74.73;100950.50;5047169;28;19921;-76
2022/06/09 08:05:44;;;;;;;;;;;;;;;15.15;73.96;100947.84;5048447;28;19948;-76
2022/06/09 08:08:09;;;;;;;;;;;;;;;15.13;73.87;100947.03;5054182;28;19964;-76
2022/06/09 08:10:34;;;;;;;;;;;;;;;15.17;72.79;100955.63;5050129;28;19927;-77
2022/06/09 08:13:02;;;;;;;;;;;;;;;15.21;71.59;100954.59;5046128;28;19936;-76
2022/06/09 08:15:28;;;;;;;;;;;;;;;15.13;72.88;100960.09;5047905;28;19913;-78
2022/06/09 08:17:54;;;;;;;;;;;;;;;15.23;71.35;100956.25;5047857;28;20386;-78
2022/06/09 08:20:20;;;;;;;;;;;;;;;15.22;70.87;100961.53;5053247;28;19933;-78
2022/06/09 08:22:46;;;;;;;;;;;;;;;15.25;71.23;100959.66;5047528;28;19933;-78
2022/06/09 08:25:13;;;;;;;;;;;;;;;15.21;70.63;100963.31;5049535;28;19924;-77
2022/06/09 08:27:39;;;;;;;;;;;;;;;15.22;70.68;100979.84;5047726;28;19935;-77
2022/06/09 08:30:06;;;;;;;;;;;;;;;15.14;70.72;100971.44;5048658;28;19917;-76
2022/06/09 08:32:32;;;;;;;;;;;;;;;15.08;69.33;100975.13;5050778;28;20015;-76
2022/06/09 08:34:57;;;;;;;;;;;;;;;15.16;70.49;100978.31;5052287;28;20444;-76
2022/06/09 08:37:23;;;;;;;;;;;;;;;15.21;71.43;100983.38;5045370;28;20015;-79
2022/06/09 08:39:48;;;;;;;;;;;;;;;15.14;69.91;100982.75;5045776;28;19933;-79
2022/06/09 08:42:46;;;;;;;;;;;;;;;15.22;69.63;100982.47;5048713;28;19936;-79
2022/06/09 08:45:15;;;;;;;;;;;;;;;15.25;70.53;100979.72;5010450;28;19998;-79
2022/06/09 08:47:45;;;;;;;;;;;;;;;15.31;69.67;100989.97;5044933;28;19921;-76
2022/06/09 08:50:10;;;;;;;;;;;;;;;15.32;71.01;100989.06;5040773;28;20366;-76
2022/06/09 08:52:35;;;;;;;;;;;;;;;15.20;70.31;100989.53;5044415;28;20760;-76
2022/06/09 08:55:07;;;;;;;;;;;;;;;15.35;70.42;100988.97;5041615;28;19931;-76
2022/06/09 08:57:33;;;;;;;;;;;;;;;15.30;69.07;100996.97;5047368;28;19923;-77
2022/06/09 09:00:00;;;;;;;;;;;;;;;15.24;69.71;100996.38;5048774;28;19921;-76
2022/06/09 09:02:31;;;;;;;;;;;;;;;15.27;68.64;101001.50;5047239;28;19921;-79
2022/06/09 09:05:03;;;;;;;;;;;;;;;15.15;69.06;101002.78;5045467;28;19925;-79
2022/06/09 09:07:31;;;;;;;;;;;;;;;15.19;69.20;101001.75;5050237;28;19968;-79
2022/06/09 09:09:58;;;;;;;;;;;;;;;15.33;68.69;101003.88;5038964;28;19921;-79
2022/06/09 09:12:48;;;;;;;;;;;;;;;15.33;69.20;101003.88;5050065;28;19929;-79
2022/06/09 09:15:32;;;;;;;;;;;;;;;15.28;68.28;101013.66;5049343;28;19924;-79
2022/06/09 09:18:00;;;;;;;;;;;;;;;15.35;68.17;101007.28;5044590;28;20024;-79
2022/06/09 09:20:29;;;;;;;;;;;;;;;15.31;70.06;101016.16;5047103;28;19967;-79
2022/06/09 09:22:54;;;;;;;;;;;;;;;15.24;68.76;101015.53;5049178;28;19936;-78
2022/06/09 09:25:37;;;;;;;;;;;;;;;15.35;68.24;101013.38;5046893;28;19928;-77
2022/06/09 09:28:05;;;;;;;;;;;;;;;15.48;68.28;101018.16;5052296;28;19982;-79
2022/06/09 09:30:37;;;;;;;;;;;;;;;15.46;67.71;101018.22;5050586;28;19917;-77
2022/06/09 09:33:03;;;;;;;;;;;;;;;15.45;66.68;101027.00;5052839;28;19916;-79
2022/06/09 09:35:40;;;;;;;;;;;;;;;15.50;67.14;101030.28;5058021;28;19921;-78
2022/06/09 09:38:06;;;;;;;;;;;;;;;15.60;66.72;101030.81;5045696;28;19924;-78
2022/06/09 09:40:34;;;;;;;;;;;;;;;15.61;67.22;101043.81;5036377;28;19921;-78
2022/06/09 09:43:03;;;;;;;;;;;;;;;15.63;66.13;101044.59;5050287;28;19925;-78
2022/06/09 09:45:31;;;;;;;;;;;;;;;15.64;67.01;101038.47;5046453;28;19917;-78
2022/06/09 09:47:58;;;;;;;;;;;;;;;15.69;66.00;101035.69;5053344;28;19913;-78
2022/06/09 09:50:32;;;;;;;;;;;;;;;15.76;65.34;101038.03;5032294;28;19932;-78
2022/06/09 09:52:58;;;;;;;;;;;;;;;15.79;64.97;101039.69;5042479;28;19928;-78
2022/06/09 09:55:25;;;;;;;;;;;;;;;15.68;65.18;101039.22;5040575;28;19925;-79
2022/06/09 09:58:07;;;;;;;;;;;;;;;15.77;64.64;101041.53;5049118;28;20011;-79
2022/06/09 10:00:34;;;;;;;;;;;;;;;15.77;63.92;101054.63;5039041;28;19917;-77
2022/06/09 10:08:37;;;;;;;;;;;;;;;15.88;66.29;101058.53;5048271;28;19927;-77
2022/06/09 10:11:53;;;;;;;;;;;;;;;15.87;64.79;101054.19;5045998;28;20303;-77
2022/06/09 10:13:50;;;;;;;;;;;;;;;15.83;64.56;101052.63;5043872;28;19920;-77
2022/06/09 10:16:15;;;;;;;;;;;;;;;15.95;65.73;101057.41;5040370;28;19925;-78
2022/06/09 10:18:43;;;;;;;;;;;;;;;15.92;64.29;101054.91;5046338;28;19943;-78
2022/06/09 10:21:10;;;;;;;;;;;;;;;15.86;64.22;101056.91;5042732;28;19917;-79
2022/06/09 10:23:36;;;;;;;;;;;;;;;15.91;65.44;101055.81;5044779;28;19917;-79
2022/06/09 10:26:07;;;;;;;;;;;;;;;15.90;64.01;101051.47;5042988;28;19959;-79
2022/06/09 10:28:51;;;;;;;;;;;;;;;15.81;63.96;101059.66;5046631;28;19917;-79
2022/06/09 10:31:39;;;;;;;;;;;;;;;15.77;63.87;101062.47;5046937;28;20419;-79
2022/06/09 10:34:07;;;;;;;;;;;;;;;15.81;63.82;101062.28;5006471;28;19918;-78
2022/06/09 10:36:51;;;;;;;;;;;;;;;15.80;65.06;101068.47;5043383;28;20043;-78
2022/06/09 10:39:23;;;;;;;;;;;;;;;15.89;64.94;101059.41;5046657;28;20264;-78
2022/06/09 10:41:54;;;;;;;;;;;;;;;15.94;66.81;101067.94;5045501;28;19982;-77
2022/06/09 10:44:22;;;;;;;;;;;;;;;15.93;64.80;101058.34;5044027;28;19960;-78
2022/06/09 10:55:59;;;;;;;;;;;;;;;16.05;64.87;101070.97;5044598;28;19974;-76
2022/06/09 10:58:34;;;;;;;;;;;;;;;16.04;65.40;101069.28;4997227;28;19929;-77
2022/06/09 11:01:00;;;;;;;;;;;;;;;16.11;64.51;101070.75;5035652;28;19928;-77
2022/06/09 11:03:51;;;;;;;;;;;;;;;16.15;63.53;101069.72;5038961;28;19925;-77
2022/06/09 11:06:17;;;;;;;;;;;;;;;16.20;64.70;101072.16;5032333;28;20358;-77
2022/06/09 11:08:45;;;;;;;;;;;;;;;16.19;62.97;101059.97;5035049;28;20016;-80
2022/06/09 11:11:10;;;;;;;;;;;;;;;16.24;64.27;101063.25;5039918;28;19947;-79
2022/06/09 11:13:54;;;;;;;;;;;;;;;16.38;63.82;101058.31;5043502;28;20575;-79
2022/06/09 11:16:25;;;;;;;;;;;;;;;16.34;63.78;101067.22;5037502;28;19920;-80
2022/06/09 11:19:06;;;;;;;;;;;;;;;16.31;61.71;101068.19;5033195;28;20062;-80
2022/06/09 11:21:49;;;;;;;;;;;;;;;16.31;61.42;101062.13;5035855;28;20331;-79
2022/06/09 11:24:33;;;;;;;;;;;;;;;16.34;62.37;101068.06;5037958;28;20303;-79
2022/06/09 11:27:22;;;;;;;;;;;;;;;16.37;63.08;101060.06;5035381;28;19913;-80
2022/06/09 11:30:06;;;;;;;;;;;;;;;16.43;61.37;101065.06;5044133;28;19921;-79
2022/06/09 11:32:40;;;;;;;;;;;;;;;16.46;61.83;101074.59;5034779;28;20297;-77
2022/06/09 11:35:12;;;;;;;;;;;;;;;16.46;62.16;101072.81;5038092;28;20399;-78
2022/06/09 11:37:46;;;;;;;;;;;;;;;16.46;60.50;101075.44;5040723;28;19925;-78
2022/06/09 11:40:17;;;;;;;;;;;;;;;16.47;62.09;101079.78;5046574;28;19937;-78
2022/06/09 11:42:54;;;;;;;;;;;;;;;16.45;61.41;101086.84;5043221;28;20418;-77
2022/06/09 11:45:39;;;;;;;;;;;;;;;16.36;60.87;101079.38;5047339;28;19939;-77
2022/06/09 11:48:06;;;;;;;;;;;;;;;16.42;63.57;101088.75;5042771;28;19913;-77
2022/06/09 11:50:36;;;;;;;;;;;;;;;16.44;62.57;101089.53;5044500;28;19928;-77
2022/06/09 11:53:01;;;;;;;;;;;;;;;16.43;61.32;101074.72;5046224;28;19968;-77
2022/06/09 11:55:57;;;;;;;;;;;;;;;16.53;61.81;101087.41;5041512;28;19965;-77
2022/06/09 11:58:33;;;;;;;;;;;;;;;16.52;61.15;101088.31;5047052;28;20360;-77
2022/06/09 12:01:10;;;;;;;;;;;;;;;16.58;63.76;101083.75;5062985;28;19920;-79
2022/06/09 12:03:56;;;;;;;;;;;;;;;16.62;60.32;101087.94;5045620;28;19924;-79
2022/06/09 12:06:40;;;;;;;;;;;;;;;16.65;60.30;101082.56;5037793;28;19924;-79
2022/06/09 12:09:23;;;;;;;;;;;;;;;16.68;57.74;101083.28;5037049;28;19955;-79
2022/06/09 12:11:51;;;;;;;;;;;;;;;16.73;57.99;101085.78;5040325;28;20472;-79
2022/06/09 12:14:19;;;;;;;;;;;;;;;16.77;57.68;101089.97;5042150;28;20569;-79
2022/06/09 12:16:56;;;;;;;;;;;;;;;16.88;59.28;101099.09;5042535;28;19955;-77
2022/06/09 12:19:28;;;;;;;;;;;;;;;17.02;60.25;101095.91;5045508;28;19924;-77
2022/06/09 12:22:01;;;;;;;;;;;;;;;16.96;59.50;101110.16;5037453;28;19978;-77
2022/06/09 12:24:32;;;;;;;;;;;;;;;16.82;59.65;101103.72;5050980;28;19920;-77
2022/06/09 12:27:05;;;;;;;;;;;;;;;16.79;58.68;101106.50;5061521;28;19916;-77
2022/06/09 12:29:31;;;;;;;;;;;;;;;16.79;58.55;101117.00;5042716;28;19932;-77
2022/06/09 12:32:20;;;;;;;;;;;;;;;16.81;58.66;101113.41;5044968;28;19929;-77
2022/06/09 12:34:49;;;;;;;;;;;;;;;16.94;59.11;101111.09;5019183;28;19921;-77
2022/06/09 12:37:31;;;;;;;;;;;;;;;16.96;58.26;101115.38;5044705;28;19974;-77
2022/06/09 12:40:13;;;;;;;;;;;;;;;16.92;58.01;101121.66;5044465;28;20040;-77
2022/06/09 12:42:44;;;;;;;;;;;;;;;16.98;58.62;101116.16;5047638;28;19920;-79
2022/06/09 12:45:12;;;;;;;;;;;;;;;16.96;56.70;101111.91;5046760;28;20326;-79
2022/06/09 12:47:50;;;;;;;;;;;;;;;17.06;57.59;101119.31;5044655;28;19925;-80
2022/06/09 12:50:27;;;;;;;;;;;;;;;16.94;57.45;101114.59;5050577;28;19953;-80
2022/06/09 12:52:54;;;;;;;;;;;;;;;16.94;58.90;101130.31;5047414;28;20023;-80
2022/06/09 12:55:23;;;;;;;;;;;;;;;16.87;60.29;101131.53;5044054;28;19929;-77
2022/06/09 12:57:52;;;;;;;;;;;;;;;16.85;57.13;101132.47;5047568;28;19995;-76
2022/06/09 13:00:23;;;;;;;;;;;;;;;16.85;58.03;101149.06;5044920;28;19963;-77
2022/06/09 13:02:48;;;;;;;;;;;;;;;16.83;57.99;101147.44;5046907;28;19913;-77
2022/06/09 13:05:27;;;;;;;;;;;;;;;16.86;56.86;101149.94;5046217;28;19979;-77